Time;durP1;ratioP1;P1;durP2;ratioP2;P2;SDS_P1;SDS_P2;PMS_P1;PMS_P2;Temp;Humidity;BMP_temperature;BMP_pressure;BME280_temperature;BME280_humidity;BME280_pressure;Samples;Min_cycle;Max_cycle;Signal;HPM_P1;HPM_P2
2021/06/29 04:15:36;;;;;;;10.77;6.57;;;;;;;16.26;100.00;98609.72;5915262;23;20438;-75
2021/06/29 04:18:02;;;;;;;6.85;5.82;;;;;;;16.37;100.00;98612.69;4953767;29;20126;-75
2021/06/29 04:20:27;;;;;;;12.13;5.43;;;;;;;16.47;100.00;98593.06;4953851;28;20066;-75
2021/06/29 04:22:52;;;;;;;7.50;5.10;;;;;;;16.27;100.00;98596.56;4953940;28;20054;-75
2021/06/29 04:25:18;;;;;;;5.28;4.78;;;;;;;16.23;100.00;98581.06;4953750;28;20106;-75
2021/06/29 04:27:43;;;;;;;11.50;5.03;;;;;;;16.23;100.00;98560.16;4953472;29;20200;-75
2021/06/29 04:30:09;;;;;;;6.38;5.63;;;;;;;16.27;100.00;98553.88;4952989;29;20023;-75
2021/06/29 04:32:35;;;;;;;10.10;5.55;;;;;;;16.28;100.00;98560.81;4953582;29;20038;-75
2021/06/29 04:35:01;;;;;;;5.57;5.03;;;;;;;16.19;100.00;98547.22;4953792;29;20031;-75
2021/06/29 04:37:26;;;;;;;7.22;4.55;;;;;;;16.26;100.00;98532.13;4953370;29;20143;-75
2021/06/29 04:39:51;;;;;;;4.43;4.10;;;;;;;16.22;100.00;98529.72;4953710;29;20482;-75
2021/06/29 04:42:17;;;;;;;7.25;3.85;;;;;;;16.22;100.00;98509.66;4953623;29;20038;-74
2021/06/29 04:44:42;;;;;;;5.57;3.67;;;;;;;16.22;100.00;98480.03;4953694;29;20102;-74
2021/06/29 04:47:09;;;;;;;2.80;2.60;;;;;;;16.28;100.00;98437.94;4953369;29;20054;-74
2021/06/29 04:49:35;;;;;;;2.60;2.40;;;;;;;16.30;100.00;98399.50;4953685;29;20030;-74
2021/06/29 04:52:01;;;;;;;3.97;2.10;;;;;;;16.30;100.00;98329.75;4954757;28;20027;-74
2021/06/29 04:54:26;;;;;;;2.92;2.55;;;;;;;16.36;98.01;98260.63;4957269;29;20094;-74
2021/06/29 04:56:52;;;;;;;5.50;2.35;;;;;;;16.30;98.82;98247.88;4956992;29;20031;-74
2021/06/29 04:59:17;;;;;;;3.50;2.20;;;;;;;16.21;100.00;98324.13;4956921;29;20027;-74
2021/06/29 05:01:43;;;;;;;2.70;2.40;;;;;;;16.47;100.00;98414.38;4957103;29;20028;-74
2021/06/29 05:04:08;;;;;;;4.28;2.85;;;;;;;16.45;100.00;98474.59;4957065;29;20069;-74
2021/06/29 05:06:34;;;;;;;6.05;3.40;;;;;;;16.47;100.00;98503.28;4956835;29;20038;-74
2021/06/29 05:08:59;;;;;;;4.68;4.18;;;;;;;16.58;100.00;98522.78;4956841;29;20027;-74
2021/06/29 05:11:25;;;;;;;3.65;2.80;;;;;;;16.49;100.00;98543.28;4956957;29;20019;-74
2021/06/29 05:13:50;;;;;;;8.13;3.10;;;;;;;16.53;100.00;98545.69;4956813;29;20396;-74
2021/06/29 05:16:15;;;;;;;4.03;3.58;;;;;;;16.59;100.00;98528.91;4956467;29;20515;-74
2021/06/29 05:18:40;;;;;;;5.53;3.20;;;;;;;16.70;100.00;98521.38;4956799;29;20535;-74
2021/06/29 05:21:06;;;;;;;4.50;2.90;;;;;;;16.68;100.00;98529.31;4956926;29;20039;-74
2021/06/29 05:23:31;;;;;;;4.95;3.38;;;;;;;16.77;100.00;98548.13;4956570;29;20027;-74
2021/06/29 05:25:57;;;;;;;5.20;3.13;;;;;;;16.88;100.00;98540.66;4956581;29;20065;-74
2021/06/29 05:28:23;;;;;;;4.47;2.83;;;;;;;16.60;100.00;98526.19;4956564;29;20380;-74
2021/06/29 05:30:48;;;;;;;4.63;2.92;;;;;;;16.62;100.00;98550.50;4956549;29;20101;-74
2021/06/29 05:33:15;;;;;;;5.28;3.13;;;;;;;16.63;100.00;98515.59;4956544;29;20062;-74
2021/06/29 05:35:41;;;;;;;4.32;2.72;;;;;;;16.56;100.00;98508.09;4956545;28;20034;-74
2021/06/29 05:38:07;;;;;;;3.88;3.22;;;;;;;16.54;100.00;98500.34;4956301;29;20477;-74
2021/06/29 05:40:34;;;;;;;4.75;2.80;;;;;;;16.51;100.00;98487.38;4956334;29;20028;-74
2021/06/29 05:42:59;;;;;;;2.80;2.60;;;;;;;16.57;100.00;98500.16;4956393;28;20031;-74
2021/06/29 05:45:25;;;;;;;9.27;3.60;;;;;;;16.68;100.00;98508.38;4956147;29;20492;-74
2021/06/29 05:47:51;;;;;;;5.22;3.10;;;;;;;16.61;100.00;98504.34;4956177;29;20035;-74
2021/06/29 05:50:17;;;;;;;5.30;3.20;;;;;;;16.63;100.00;98501.66;4956192;29;20388;-75
2021/06/29 05:52:42;;;;;;;8.02;3.90;;;;;;;16.66;100.00;98499.75;4956145;29;20031;-75
2021/06/29 05:55:09;;;;;;;7.38;3.50;;;;;;;16.68;100.00;98505.78;4956146;29;20101;-75
2021/06/29 05:57:36;;;;;;;5.30;2.83;;;;;;;16.64;100.00;98503.38;4955865;29;20405;-75
2021/06/29 06:00:11;;;;;;;3.15;2.95;;;;;;;16.76;100.00;98501.97;4955893;29;20477;-75
2021/06/29 06:02:38;;;;;;;3.70;3.08;;;;;;;16.80;99.87;98500.91;4955987;28;20118;-75
2021/06/29 06:05:05;;;;;;;5.20;2.65;;;;;;;16.92;99.29;98516.88;4955941;29;20044;-75
2021/06/29 06:07:31;;;;;;;3.83;3.20;;;;;;;16.94;100.00;98506.31;4955681;29;20454;-75
2021/06/29 06:09:56;;;;;;;3.63;2.97;;;;;;;16.99;100.00;98511.34;4955960;29;20026;-75
2021/06/29 06:12:21;;;;;;;5.50;3.10;;;;;;;17.12;99.43;98518.53;4955749;29;20027;-75
2021/06/29 06:14:47;;;;;;;3.45;3.13;;;;;;;17.24;99.71;98516.22;4955921;29;20031;-75
2021/06/29 06:17:12;;;;;;;4.10;3.00;;;;;;;17.38;99.09;98519.00;4955445;29;20484;-75
2021/06/29 06:19:37;;;;;;;5.60;2.97;;;;;;;17.50;97.18;98528.84;4955851;29;20035;-75
2021/06/29 06:22:03;;;;;;;2.90;2.58;;;;;;;17.63;96.83;98519.47;4955609;29;20511;-75
2021/06/29 06:24:28;;;;;;;3.95;2.88;;;;;;;17.67;96.93;98510.53;4955759;29;20326;-75
2021/06/29 06:26:53;;;;;;;2.88;2.28;;;;;;;17.86;94.70;98488.66;4955280;29;20031;-75
2021/06/29 06:29:19;;;;;;;5.70;2.70;;;;;;;18.08;95.42;98476.06;4955677;29;20026;-75
2021/06/29 06:31:44;;;;;;;2.78;2.58;;;;;;;17.95;94.72;98467.19;4955551;29;20295;-75
2021/06/29 06:34:09;;;;;;;3.47;2.28;;;;;;;18.20;94.17;98466.72;4955481;29;20081;-75
2021/06/29 06:36:35;;;;;;;3.80;2.03;;;;;;;18.60;92.91;98475.88;4954997;29;20031;-75
2021/06/29 06:39:00;;;;;;;2.85;2.25;;;;;;;18.86;91.90;98473.63;4955436;29;20027;-74
2021/06/29 06:41:25;;;;;;;4.85;1.83;;;;;;;19.12;90.65;98467.72;4955202;29;20078;-74
2021/06/29 06:43:51;;;;;;;2.25;2.03;;;;;;;19.62;88.92;98469.16;4955311;29;20118;-74
2021/06/29 06:46:16;;;;;;;2.20;2.00;;;;;;;19.84;87.15;98481.03;4954986;29;20396;-74
2021/06/29 06:48:42;;;;;;;3.35;2.00;;;;;;;19.85;84.35;98475.69;4955433;29;20424;-74
2021/06/29 06:51:09;;;;;;;3.17;2.00;;;;;;;20.17;83.55;98488.66;4955152;29;20024;-75
2021/06/29 06:53:34;;;;;;;2.15;1.77;;;;;;;20.79;79.48;98479.47;4954989;29;20035;-75
2021/06/29 06:56:00;;;;;;;4.68;2.08;;;;;;;20.67;77.72;98477.59;4954937;29;20027;-75
2021/06/29 06:58:25;;;;;;;3.70;1.80;;;;;;;21.19;75.83;98474.22;4954789;29;20377;-75
2021/06/29 07:00:52;;;;;;;3.47;1.58;;;;;;;21.08;76.41;98471.47;4954889;29;20472;-75
2021/06/29 07:03:18;;;;;;;2.03;1.83;;;;;;;21.09;75.41;98481.06;4954873;29;20078;-75
2021/06/29 07:05:43;;;;;;;2.88;1.50;;;;;;;21.50;73.62;98473.03;4954848;29;20121;-75
2021/06/29 07:08:08;;;;;;;4.00;1.35;;;;;;;22.61;70.82;98468.00;4954598;29;20166;-75
2021/06/29 07:10:34;;;;;;;4.22;1.45;;;;;;;22.51;68.93;98467.81;4954656;29;20106;-75
2021/06/29 07:12:59;;;;;;;2.22;1.40;;;;;;;23.72;66.96;98459.72;4954684;29;20031;-75
2021/06/29 07:15:27;;;;;;;1.58;1.30;;;;;;;23.10;65.11;98460.00;4954039;28;20025;-76
2021/06/29 07:17:53;;;;;;;5.37;2.00;;;;;;;23.62;64.82;98464.00;4954619;29;20051;-76
2021/06/29 07:20:19;;;;;;;1.92;1.27;;;;;;;24.28;63.37;98457.09;4954401;29;20027;-76
2021/06/29 07:22:44;;;;;;;6.35;1.60;;;;;;;25.51;58.00;98463.03;4954550;29;20105;-76
2021/06/29 07:25:10;;;;;;;1.85;1.65;;;;;;;26.44;56.08;98452.34;4954359;29;20027;-76
2021/06/29 07:27:35;;;;;;;1.67;1.15;;;;;;;27.26;55.35;98459.19;4954316;29;20055;-76
2021/06/29 07:30:00;;;;;;;3.92;1.20;;;;;;;27.82;50.20;98453.97;4954362;29;20051;-76
2021/06/29 07:32:27;;;;;;;5.50;1.38;;;;;;;28.24;47.24;98450.88;4954658;29;20054;-76
2021/06/29 07:34:52;;;;;;;2.70;1.10;;;;;;;29.07;45.80;98450.81;4953141;29;20429;-76
2021/06/29 07:37:18;;;;;;;2.92;1.08;;;;;;;29.15;47.20;98450.88;4954220;29;20073;-76
2021/06/29 07:39:43;;;;;;;4.93;1.30;;;;;;;29.90;42.33;98451.31;4954131;29;20023;-76
2021/06/29 07:42:08;;;;;;;1.98;1.02;;;;;;;29.21;44.22;98450.28;4954318;29;20027;-76
2021/06/29 07:44:34;;;;;;;2.75;1.30;;;;;;;30.68;43.74;98451.16;4954319;29;20039;-76
2021/06/29 07:46:59;;;;;;;0.88;0.88;;;;;;;30.74;41.31;98441.66;4953986;29;20055;-76
2021/06/29 07:49:26;;;;;;;1.65;1.00;;;;;;;30.57;42.67;98446.13;4953986;29;20020;-76
2021/06/29 07:51:52;;;;;;;1.40;0.88;;;;;;;31.21;40.13;98440.06;4954158;29;20420;-76
2021/06/29 07:54:18;;;;;;;4.10;1.30;;;;;;;31.39;39.74;98429.22;4954124;29;20027;-76
2021/06/29 07:56:43;;;;;;;2.65;1.00;;;;;;;31.28;38.19;98432.22;4953744;29;20038;-76
2021/06/29 07:59:09;;;;;;;1.20;0.80;;;;;;;30.21;39.27;98438.28;4954126;29;20023;-76
2021/06/29 08:01:34;;;;;;;1.20;0.90;;;;;;;31.69;37.10;98427.66;4954126;29;20109;-76
2021/06/29 08:03:59;;;;;;;2.72;1.05;;;;;;;30.73;39.57;98432.81;4954083;29;20054;-76
2021/06/29 08:06:25;;;;;;;0.70;0.70;;;;;;;31.68;37.95;98433.19;4953733;29;20034;-76
2021/06/29 08:08:50;;;;;;;1.10;0.90;;;;;;;30.73;40.12;98440.84;4952646;29;20053;-76
2021/06/29 08:11:15;;;;;;;1.40;1.00;;;;;;;31.08;39.02;98433.53;4953858;28;20055;-76
2021/06/29 08:13:41;;;;;;;1.38;0.80;;;;;;;31.03;39.55;98428.66;4953893;29;20285;-76
2021/06/29 08:16:07;;;;;;;1.55;1.02;;;;;;;32.99;35.53;98420.94;4953578;29;20031;-76
2021/06/29 08:18:34;;;;;;;1.20;0.80;;;;;;;32.91;36.90;98421.00;4953800;29;20030;-76
2021/06/29 08:21:01;;;;;;;7.35;0.93;;;;;;;28.17;46.00;98423.13;4953753;29;20102;-76
2021/06/29 08:23:27;;;;;;;2.90;1.10;;;;;;;27.23;47.19;98422.25;4953707;29;20039;-76
2021/06/29 08:25:53;;;;;;;5.40;1.13;;;;;;;27.44;50.89;98422.06;4953683;28;20125;-75
2021/06/29 08:28:18;;;;;;;1.45;0.90;;;;;;;29.90;41.80;98404.06;4947900;29;20064;-76
2021/06/29 08:30:45;;;;;;;3.85;2.08;;;;;;;31.68;40.38;98396.53;4964047;28;20686;-76
2021/06/29 08:33:11;;;;;;;4.30;2.05;;;;;;;32.95;37.47;98395.47;4940443;29;20441;-76
2021/06/29 08:35:38;;;;;;;4.82;1.10;;;;;;;33.96;32.36;98398.75;4946550;29;20488;-77
2021/06/29 08:38:04;;;;;;;0.80;0.75;;;;;;;32.70;35.52;98399.31;4945305;28;20464;-76
2021/06/29 08:40:29;;;;;;;1.25;0.70;;;;;;;32.72;36.36;98394.59;4953405;29;20139;-76
2021/06/29 08:42:54;;;;;;;1.05;0.80;;;;;;;32.77;36.46;98392.22;4941441;28;20031;-76
2021/06/29 08:45:20;;;;;;;0.95;0.77;;;;;;;32.36;35.75;98400.53;4951121;28;20066;-76
2021/06/29 08:47:45;;;;;;;1.05;0.75;;;;;;;32.59;34.65;98394.34;4947386;29;20023;-76
2021/06/29 08:50:15;;;;;;;2.60;1.05;;;;;;;31.44;37.72;98393.91;4937765;29;20019;-76
2021/06/29 08:52:41;;;;;;;0.70;0.70;;;;;;;31.05;35.90;98383.84;4942371;29;20059;-76
2021/06/29 08:55:09;;;;;;;2.15;0.80;;;;;;;30.16;40.21;98371.94;4937922;29;20714;-76
2021/06/29 08:57:35;;;;;;;0.88;0.55;;;;;;;32.06;35.60;98371.78;4945875;29;20115;-76
2021/06/29 09:00:00;;;;;;;2.53;0.82;;;;;;;30.50;36.27;98372.88;4945441;28;20521;-76
2021/06/29 09:02:27;;;;;;;2.50;1.02;;;;;;;32.97;33.70;98366.59;4952629;29;20038;-76
2021/06/29 09:04:56;;;;;;;3.22;1.00;;;;;;;32.52;33.35;98366.56;4940976;28;20055;-76
2021/06/29 09:07:27;;;;;;;2.65;0.80;;;;;;;32.93;32.94;98362.63;4950234;28;20473;-76
2021/06/29 09:09:57;;;;;;;1.35;0.68;;;;;;;32.49;33.93;98355.19;4947879;29;20034;-76
2021/06/29 09:12:51;;;;;;;1.63;0.70;;;;;;;32.59;32.43;98352.28;4942436;28;20031;-76
2021/06/29 09:15:28;;;;;;;1.02;0.60;;;;;;;32.51;33.36;98346.13;4943103;29;20400;-76
2021/06/29 09:17:56;;;;;;;1.25;0.73;;;;;;;30.93;34.18;98353.91;4945887;28;20042;-76
2021/06/29 09:20:31;;;;;;;1.45;0.90;;;;;;;30.96;35.59;98361.59;4950464;29;20016;-76
2021/06/29 09:22:58;;;;;;;2.90;0.63;;;;;;;32.42;34.24;98354.22;4943044;28;20028;-76
2021/06/29 09:25:28;;;;;;;1.88;0.70;;;;;;;32.11;35.13;98348.00;4937336;29;20050;-76
2021/06/29 09:27:55;;;;;;;0.73;0.73;;;;;;;31.47;34.37;98348.00;4947632;29;20054;-76
2021/06/29 09:30:26;;;;;;;0.70;0.70;;;;;;;31.35;37.80;98354.75;4942164;28;20119;-76
2021/06/29 09:32:52;;;;;;;1.63;1.20;;;;;;;33.54;34.25;98348.31;4939271;29;20067;-76
2021/06/29 09:35:17;;;;;;;1.27;0.90;;;;;;;33.63;32.88;98345.34;4954270;28;20051;-75
2021/06/29 09:37:47;;;;;;;1.23;0.80;;;;;;;34.92;29.68;98340.25;4948426;28;20039;-75
2021/06/29 09:40:15;;;;;;;2.45;1.08;;;;;;;35.79;29.28;98337.19;4935818;29;20019;-73
2021/06/29 09:42:41;;;;;;;5.35;0.90;;;;;;;34.47;31.75;98326.97;4953606;29;20392;-74
2021/06/29 09:45:33;;;;;;;2.47;0.80;;;;;;;31.53;33.72;98327.75;4951453;28;20027;-74
2021/06/29 09:47:59;;;;;;;0.82;0.52;;;;;;;33.21;32.63;98319.03;4943335;29;20537;-73
2021/06/29 09:50:45;;;;;;;1.25;0.60;;;;;;;34.69;29.98;98319.75;4936307;29;20123;-73
2021/06/29 09:53:26;;;;;;;3.75;0.85;;;;;;;34.65;29.42;98307.69;4948531;29;20023;-73
2021/06/29 09:55:55;;;;;;;1.25;0.70;;;;;;;32.94;32.21;98307.91;4948218;28;20050;-73
2021/06/29 09:58:21;;;;;;;0.90;0.60;;;;;;;31.53;36.95;98306.34;4944188;29;20024;-73
2021/06/29 10:00:57;;;;;;;0.95;0.88;;;;;;;29.83;37.31;98300.66;4944370;29;20027;-73
2021/06/29 10:03:24;;;;;;;3.67;0.93;;;;;;;31.24;37.95;98297.00;4955695;28;20081;-75
2021/06/29 10:05:52;;;;;;;1.13;0.80;;;;;;;32.28;33.97;98285.22;4944641;28;20028;-76
2021/06/29 10:08:24;;;;;;;1.75;0.82;;;;;;;31.76;35.58;98288.47;4949965;29;20046;-77
2021/06/29 10:11:02;;;;;;;1.02;0.75;;;;;;;32.70;32.71;98289.31;4951545;28;20081;-77
2021/06/29 10:13:33;;;;;;;1.58;0.73;;;;;;;33.42;31.63;98281.59;4941673;29;20019;-76
2021/06/29 10:15:59;;;;;;;1.67;0.82;;;;;;;31.40;35.99;98269.38;4942569;28;20453;-75
2021/06/29 10:18:25;;;;;;;1.33;0.85;;;;;;;31.79;36.92;98261.34;4950851;29;20106;-73
2021/06/29 10:20:56;;;;;;;0.73;0.70;;;;;;;33.41;35.42;98255.72;4936864;28;20028;-76
2021/06/29 10:23:22;;;;;;;3.42;0.77;;;;;;;34.09;30.99;98252.88;4941130;29;20031;-76
2021/06/29 10:25:48;;;;;;;3.80;0.90;;;;;;;33.16;34.06;98252.47;4935980;29;20056;-75
2021/06/29 10:28:15;;;;;;;1.00;0.80;;;;;;;30.46;38.41;98252.91;4949376;29;20023;-77
2021/06/29 10:30:41;;;;;;;1.60;0.90;;;;;;;29.86;38.35;98253.09;4945325;28;20030;-75
2021/06/29 10:33:08;;;;;;;2.45;0.77;;;;;;;30.21;35.90;98252.00;4952751;29;20038;-77
2021/06/29 10:35:34;;;;;;;0.70;0.70;;;;;;;30.98;36.13;98247.19;4941768;28;20077;-77
2021/06/29 10:38:00;;;;;;;3.60;1.85;;;;;;;34.78;31.17;98240.50;4947033;29;20039;-77
2021/06/29 10:40:26;;;;;;;1.10;0.90;;;;;;;35.07;29.73;98232.47;4940332;28;20021;-77
2021/06/29 10:42:56;;;;;;;0.60;0.60;;;;;;;32.54;32.21;98233.06;4951399;29;20338;-77
2021/06/29 10:45:21;;;;;;;1.33;0.85;;;;;;;34.62;30.00;98231.88;4934955;29;20023;-73
2021/06/29 10:47:47;;;;;;;0.77;0.77;;;;;;;34.18;29.38;98230.19;4938870;29;20078;-76
2021/06/29 10:50:15;;;;;;;1.65;0.82;;;;;;;33.68;31.34;98223.84;4934963;29;20380;-73
2021/06/29 10:52:43;;;;;;;1.80;0.90;;;;;;;32.18;33.36;98228.31;4951540;29;20027;-77
2021/06/29 10:55:17;;;;;;;0.90;0.68;;;;;;;33.56;32.12;98225.31;4940345;29;20424;-73
2021/06/29 10:57:48;;;;;;;2.55;0.80;;;;;;;34.47;30.16;98230.09;4945546;28;20058;-72
2021/06/29 11:00:16;;;;;;;0.73;0.73;;;;;;;33.46;32.85;98221.09;4948670;29;20033;-76
2021/06/29 11:02:59;;;;;;;0.95;0.93;;;;;;;34.36;31.03;98230.59;4937842;28;20079;-75
2021/06/29 11:05:45;;;;;;;3.60;0.82;;;;;;;35.70;31.87;98219.75;4954552;28;20122;-75
2021/06/29 11:08:16;;;;;;;0.70;0.70;;;;;;;33.20;33.19;98218.03;4941406;28;20047;-73
2021/06/29 11:10:48;;;;;;;1.70;0.90;;;;;;;32.34;34.44;98214.75;4943226;29;20032;-73
2021/06/29 11:13:15;;;;;;;0.70;0.70;;;;;;;31.83;34.97;98203.75;4934313;29;20036;-73
2021/06/29 11:15:51;;;;;;;2.70;0.85;;;;;;;30.53;37.98;98212.94;4935086;29;20036;-73
2021/06/29 11:18:33;;;;;;;3.35;1.00;;;;;;;31.36;36.66;98203.78;4947634;29;20027;-73
2021/06/29 11:21:02;;;;;;;1.25;0.82;;;;;;;30.50;36.61;98204.41;4934091;29;20020;-76
2021/06/29 11:23:30;;;;;;;4.10;1.05;;;;;;;30.41;37.58;98200.91;4938656;29;20041;-77
2021/06/29 11:26:01;;;;;;;0.65;0.65;;;;;;;31.01;35.06;98194.34;4939195;29;20032;-77
2021/06/29 11:28:33;;;;;;;0.82;0.80;;;;;;;29.77;37.43;98187.28;4934966;29;20110;-73
2021/06/29 11:31:08;;;;;;;2.63;0.80;;;;;;;30.56;37.25;98187.69;4950768;29;20044;-74
2021/06/29 11:33:39;;;;;;;1.23;1.10;;;;;;;31.42;35.48;98182.47;4943004;29;20047;-75
2021/06/29 11:38:51;;;;;;;1.25;0.75;;;;;;;30.09;37.36;98174.97;4935038;29;20095;-75
2021/06/29 11:41:26;;;;;;;1.27;1.17;;;;;;;30.90;35.67;98166.09;4939267;29;20030;-75
2021/06/29 11:44:07;;;;;;;2.03;1.00;;;;;;;33.85;33.70;98173.34;4943551;28;20027;-75
2021/06/29 11:46:53;;;;;;;0.75;0.65;;;;;;;32.77;32.60;98182.88;4934495;29;20477;-75
2021/06/29 11:49:39;;;;;;;0.60;0.60;;;;;;;33.63;30.20;98175.19;4934804;29;20500;-75
2021/06/29 11:52:18;;;;;;;0.95;0.63;;;;;;;34.40;30.54;98178.06;4946738;29;20062;-75
2021/06/29 11:54:45;;;;;;;1.60;0.60;;;;;;;33.97;30.54;98170.00;4936535;28;20027;-75
2021/06/29 11:57:24;;;;;;;0.80;0.70;;;;;;;32.22;33.88;98166.09;4939351;29;20141;-75
2021/06/29 11:59:51;;;;;;;2.00;0.65;;;;;;;30.43;36.21;98166.81;4943797;28;20050;-76
2021/06/29 12:02:27;;;;;;;1.15;0.98;;;;;;;28.35;39.18;98165.53;4948107;29;20493;-75
2021/06/29 12:04:57;;;;;;;0.65;0.60;;;;;;;28.96;36.88;98157.59;4937786;28;20058;-76
2021/06/29 12:07:32;;;;;;;1.73;0.77;;;;;;;29.79;37.51;98155.09;4947142;28;20058;-76
2021/06/29 12:09:57;;;;;;;1.20;0.80;;;;;;;29.25;37.17;98146.53;4945310;29;20464;-76
2021/06/29 12:12:25;;;;;;;2.58;0.50;;;;;;;29.14;39.61;98145.00;4939013;28;20031;-76
2021/06/29 12:15:13;;;;;;;0.80;0.73;;;;;;;29.17;39.29;98139.34;4949862;29;20062;-75
2021/06/29 12:17:57;;;;;;;2.22;0.90;;;;;;;29.50;39.98;98132.28;4942835;29;20566;-75
2021/06/29 12:20:25;;;;;;;3.20;0.70;;;;;;;28.83;39.85;98129.50;4939124;28;20024;-72
2021/06/29 12:22:52;;;;;;;3.97;0.80;;;;;;;28.88;37.76;98118.34;4946790;29;20647;-74
2021/06/29 12:25:19;;;;;;;0.95;0.93;;;;;;;29.13;39.90;98116.66;4951008;28;20063;-74
2021/06/29 12:27:53;;;;;;;1.27;1.17;;;;;;;28.89;39.88;98104.84;4943707;28;20020;-73
2021/06/29 12:30:48;;;;;;;1.17;1.08;;;;;;;29.01;39.58;98108.13;4947989;29;20030;-72
2021/06/29 12:33:28;;;;;;;2.53;0.80;;;;;;;29.22;36.55;98125.53;4936063;29;20529;-72
2021/06/29 12:35:54;;;;;;;1.05;0.95;;;;;;;29.81;38.72;98131.69;4943352;29;20101;-72
2021/06/29 12:38:25;;;;;;;14.02;9.20;;;;;;;30.63;36.95;98132.53;4953181;28;20520;-72
2021/06/29 12:40:57;;;;;;;3.53;2.00;;;;;;;31.22;37.06;98143.72;4937286;28;20031;-72
2021/06/29 12:43:38;;;;;;;1.73;0.90;;;;;;;30.73;36.33;98143.91;4945606;28;20028;-72
2021/06/29 12:46:27;;;;;;;1.45;0.93;;;;;;;30.22;37.89;98151.31;4945518;29;20019;-72
2021/06/29 12:49:01;;;;;;;6.07;1.25;;;;;;;29.57;38.61;98159.19;4950055;29;20027;-73
2021/06/29 12:51:28;;;;;;;1.90;0.70;;;;;;;29.52;37.54;98164.16;4940978;29;20448;-73
2021/06/29 12:54:00;;;;;;;1.10;0.90;;;;;;;29.51;38.97;98152.66;4942430;28;20031;-74
2021/06/29 12:56:35;;;;;;;0.60;0.60;;;;;;;28.91;37.66;98145.56;4948318;29;20469;-74
2021/06/29 12:59:00;;;;;;;2.05;1.48;;;;;;;28.99;40.75;98147.44;4937455;29;20469;-74
2021/06/29 13:01:26;;;;;;;3.22;0.80;;;;;;;29.00;39.82;98148.28;4947881;28;20020;-73
2021/06/29 13:03:56;;;;;;;0.90;0.90;;;;;;;28.45;42.59;98159.25;4942691;29;20023;-72
2021/06/29 13:06:23;;;;;;;3.55;1.52;;;;;;;26.94;44.93;98170.44;4933878;29;20040;-73
2021/06/29 13:08:50;;;;;;;2.65;1.00;;;;;;;27.28;44.83;98159.25;4949340;29;20078;-73
2021/06/29 13:11:17;;;;;;;25.83;18.30;;;;;;;27.13;46.67;98161.56;4933729;29;20055;-72
2021/06/29 13:14:07;;;;;;;1.27;1.17;;;;;;;26.61;48.56;98171.78;4945174;29;20027;-72
2021/06/29 13:16:35;;;;;;;1.27;1.00;;;;;;;26.69;46.68;98181.69;4940455;28;20036;-72
2021/06/29 13:19:02;;;;;;;2.20;0.98;;;;;;;26.08;47.67;98206.78;4939874;28;20038;-72
2021/06/29 13:21:31;;;;;;;1.10;0.98;;;;;;;25.37;52.05;98266.06;4949142;28;20031;-73
2021/06/29 13:23:59;;;;;;;8.00;0.73;;;;;;;22.31;50.98;98398.81;4942479;29;20086;-72
2021/06/29 13:26:25;;;;;;;5.53;0.60;;;;;;;20.08;59.55;98424.31;4936984;29;20054;-71
2021/06/29 13:28:51;;;;;;;3.13;0.70;;;;;;;19.29;68.74;98460.63;4952234;29;20346;-72
2021/06/29 13:31:17;;;;;;;3.88;0.90;;;;;;;18.29;77.78;98481.13;4937122;29;20028;-72
2021/06/29 13:33:42;;;;;;;5.38;1.17;;;;;;;16.30;86.63;98517.16;4946336;29;20477;-72
2021/06/29 13:36:09;;;;;;;6.63;1.20;;;;;;;15.55;93.14;98516.03;4943728;28;20370;-72
2021/06/29 13:38:34;;;;;;;2.22;0.95;;;;;;;15.17;95.06;98528.91;4952725;29;20162;-71
2021/06/29 13:41:00;;;;;;;3.72;1.50;;;;;;;15.09;96.31;98525.78;4940162;29;20094;-72
2021/06/29 13:43:29;;;;;;;8.68;1.63;;;;;;;15.35;99.64;98526.44;4947954;28;20060;-72
2021/06/29 13:45:57;;;;;;;4.95;1.58;;;;;;;15.41;99.01;98515.75;4947403;29;20109;-72
2021/06/29 13:48:29;;;;;;;4.45;1.92;;;;;;;15.49;99.16;98511.06;4941731;28;20032;-70
2021/06/29 13:50:55;;;;;;;3.70;1.50;;;;;;;15.61;99.99;98512.28;4952809;28;20481;-71
2021/06/29 13:53:29;;;;;;;2.83;1.33;;;;;;;15.52;97.18;98524.00;4943151;29;20038;-73
2021/06/29 13:56:02;;;;;;;5.78;1.50;;;;;;;15.50;98.12;98525.81;4945427;28;20099;-72
2021/06/29 13:58:35;;;;;;;4.78;1.40;;;;;;;15.67;98.83;98539.06;4951838;29;20503;-72
2021/06/29 14:01:04;;;;;;;7.63;1.60;;;;;;;15.68;97.49;98538.13;4940544;29;20440;-72
2021/06/29 14:03:31;;;;;;;3.33;1.52;;;;;;;15.66;98.11;98542.59;4947505;29;20028;-72
2021/06/29 14:06:06;;;;;;;23.05;14.48;;;;;;;15.88;99.76;98536.44;4935178;29;20114;-73
2021/06/29 14:08:35;;;;;;;7.57;1.48;;;;;;;15.88;98.26;98534.66;4950059;29;20090;-71
2021/06/29 14:11:00;;;;;;;1.85;1.00;;;;;;;16.07;98.51;98537.31;4934787;29;20026;-72
2021/06/29 14:13:37;;;;;;;11.57;1.33;;;;;;;16.24;98.18;98538.31;4934108;29;20512;-71
2021/06/29 14:16:04;;;;;;;3.75;1.20;;;;;;;16.24;96.13;98535.72;4940869;28;20543;-73
2021/06/29 14:18:32;;;;;;;3.42;1.42;;;;;;;16.17;95.57;98540.38;4954351;29;20023;-73
2021/06/29 14:20:58;;;;;;;2.72;1.30;;;;;;;16.26;97.10;98552.19;4952255;29;20598;-73
2021/06/29 14:23:24;;;;;;;3.53;1.60;;;;;;;16.32;98.71;98551.91;4947664;28;20473;-73
2021/06/29 14:25:50;;;;;;;2.72;1.25;;;;;;;16.14;94.92;98543.97;4942850;28;20127;-73
2021/06/29 14:28:15;;;;;;;2.33;1.30;;;;;;;16.29;98.11;98531.13;4949116;29;20086;-73
2021/06/29 14:30:41;;;;;;;4.95;1.30;;;;;;;16.21;96.09;98523.63;4939205;28;20024;-73
2021/06/29 14:33:06;;;;;;;2.60;1.42;;;;;;;16.23;96.28;98526.19;4950919;28;20031;-73
2021/06/29 14:35:32;;;;;;;5.47;1.65;;;;;;;16.23;97.60;98527.03;4943302;29;20111;-73
2021/06/29 14:37:58;;;;;;;1.52;1.00;;;;;;;16.04;96.00;98527.00;4943652;28;20402;-73
2021/06/29 14:40:24;;;;;;;2.17;1.23;;;;;;;16.10;96.71;98531.09;4950066;29;20043;-73
2021/06/29 14:42:50;;;;;;;4.50;1.80;;;;;;;16.31;98.71;98529.31;4938826;28;20716;-73
2021/06/29 14:45:16;;;;;;;3.05;1.65;;;;;;;16.21;98.92;98530.63;4948958;28;20087;-73
2021/06/29 14:47:48;;;;;;;5.50;1.50;;;;;;;16.10;98.19;98531.97;4934842;29;20393;-73
2021/06/29 14:50:15;;;;;;;2.53;1.17;;;;;;;16.17;97.89;98543.84;4948699;29;20114;-73
2021/06/29 14:52:41;;;;;;;17.98;9.82;;;;;;;16.08;95.43;98544.25;4953558;28;20033;-73
2021/06/29 14:55:08;;;;;;;5.97;2.20;;;;;;;16.06;99.92;98546.09;4939434;29;20031;-74
2021/06/29 14:57:34;;;;;;;5.13;1.35;;;;;;;16.10;97.34;98537.19;4946255;28;20110;-72
2021/06/29 15:00:00;;;;;;;3.90;1.63;;;;;;;16.02;95.60;98525.38;4946522;29;20023;-73
2021/06/29 15:02:25;;;;;;;8.10;1.75;;;;;;;16.23;100.00;98518.34;4939655;28;20486;-73
2021/06/29 15:04:51;;;;;;;5.80;1.58;;;;;;;16.07;97.07;98511.19;4950835;29;20070;-73
2021/06/29 15:07:17;;;;;;;3.78;1.02;;;;;;;15.71;96.31;98508.41;4940434;29;20480;-72
2021/06/29 15:09:43;;;;;;;1.80;1.15;;;;;;;15.62;95.55;98493.97;4944827;29;20036;-72
2021/06/29 15:12:08;;;;;;;5.22;1.42;;;;;;;15.59;99.68;98475.81;4947381;29;20034;-72
2021/06/29 15:14:33;;;;;;;1.83;1.20;;;;;;;15.55;99.79;98461.19;4938027;28;20508;-72
2021/06/29 15:16:59;;;;;;;1.30;1.20;;;;;;;15.48;98.51;98441.47;4949245;28;20386;-72
2021/06/29 15:19:24;;;;;;;2.08;1.30;;;;;;;15.41;99.28;98401.72;4940026;29;20158;-72
2021/06/29 15:21:49;;;;;;;4.53;1.45;;;;;;;15.29;100.00;98360.50;4954310;28;20477;-72
2021/06/29 15:24:15;;;;;;;2.63;1.23;;;;;;;15.27;100.00;98359.69;4948645;28;20050;-72
2021/06/29 15:26:44;;;;;;;1.45;1.05;;;;;;;15.68;98.23;98352.69;4938014;28;20031;-72
2021/06/29 15:29:10;;;;;;;0.88;0.88;;;;;;;15.85;94.78;98366.72;4949099;28;20115;-72
2021/06/29 15:31:35;;;;;;;1.75;1.40;;;;;;;16.01;95.82;98359.03;4942926;29;20110;-73
2021/06/29 15:34:00;;;;;;;1.33;1.10;;;;;;;16.13;91.18;98361.06;4942680;28;20106;-73
2021/06/29 15:36:25;;;;;;;3.90;1.10;;;;;;;16.44;93.35;98337.78;4948921;28;20027;-72
2021/06/29 15:38:51;;;;;;;3.13;1.02;;;;;;;16.52;89.72;98331.31;4938050;28;20571;-72
2021/06/29 15:41:16;;;;;;;2.97;1.30;;;;;;;16.79;89.21;98323.91;4948388;28;20552;-72
2021/06/29 15:43:41;;;;;;;1.58;1.20;;;;;;;17.05;88.08;98331.25;4943653;29;20027;-72
2021/06/29 15:46:07;;;;;;;2.45;1.10;;;;;;;17.35;87.37;98331.44;4941427;28;20155;-72
2021/06/29 15:48:33;;;;;;;2.35;1.27;;;;;;;17.34;87.25;98334.13;4950573;29;20027;-72
2021/06/29 15:50:58;;;;;;;2.83;2.30;;;;;;;17.55;87.19;98369.69;4937835;28;20034;-72
2021/06/29 15:53:25;;;;;;;2.13;0.90;;;;;;;17.51;84.84;98404.81;4947014;28;20063;-72